sensor_id;sensor_type;location;lat;lon;timestamp;P1;durP1;ratioP1;P2;durP2;ratioP2
32082;SDS011;18597;48.328;7.932;2024-02-23T00:00:41;0.70;;;0.67;;
32082;SDS011;18597;48.328;7.932;2024-02-23T00:03:07;0.93;;;0.60;;
32082;SDS011;18597;48.328;7.932;2024-02-23T00:05:35;0.40;;;0.40;;
32082;SDS011;18597;48.328;7.932;2024-02-23T00:08:01;1.23;;;0.70;;
32082;SDS011;18597;48.328;7.932;2024-02-23T00:10:27;1.80;;;0.50;;
32082;SDS011;18597;48.328;7.932;2024-02-23T00:12:53;2.47;;;0.50;;
32082;SDS011;18597;48.328;7.932;2024-02-23T00:15:19;1.13;;;0.30;;
32082;SDS011;18597;48.328;7.932;2024-02-23T00:17:45;1.60;;;0.57;;
32082;SDS011;18597;48.328;7.932;2024-02-23T00:20:10;0.90;;;0.80;;
32082;SDS011;18597;48.328;7.932;2024-02-23T00:22:37;1.27;;;0.50;;
32082;SDS011;18597;48.328;7.932;2024-02-23T00:25:03;0.60;;;0.40;;
32082;SDS011;18597;48.328;7.932;2024-02-23T00:27:30;0.93;;;0.80;;
32082;SDS011;18597;48.328;7.932;2024-02-23T00:29:56;8.80;;;0.50;;
32082;SDS011;18597;48.328;7.932;2024-02-23T00:32:22;0.30;;;0.30;;
32082;SDS011;18597;48.328;7.932;2024-02-23T00:34:48;0.93;;;0.93;;
32082;SDS011;18597;48.328;7.932;2024-02-23T00:37:13;2.93;;;0.90;;
32082;SDS011;18597;48.328;7.932;2024-02-23T00:39:40;2.53;;;0.60;;
32082;SDS011;18597;48.328;7.932;2024-02-23T00:42:06;0.50;;;0.50;;
32082;SDS011;18597;48.328;7.932;2024-02-23T00:44:32;0.40;;;0.40;;
32082;SDS011;18597;48.328;7.932;2024-02-23T00:46:58;0.50;;;0.50;;
32082;SDS011;18597;48.328;7.932;2024-02-23T00:49:26;0.33;;;0.30;;
32082;SDS011;18597;48.328;7.932;2024-02-23T00:51:53;2.63;;;0.60;;
32082;SDS011;18597;48.328;7.932;2024-02-23T00:54:20;0.83;;;0.60;;
32082;SDS011;18597;48.328;7.932;2024-02-23T00:56:46;0.50;;;0.40;;
32082;SDS011;18597;48.328;7.932;2024-02-23T00:59:12;1.80;;;0.63;;
32082;SDS011;18597;48.328;7.932;2024-02-23T01:01:38;3.17;;;1.83;;
32082;SDS011;18597;48.328;7.932;2024-02-23T01:04:04;3.60;;;2.27;;
32082;SDS011;18597;48.328;7.932;2024-02-23T01:06:30;0.67;;;0.50;;
32082;SDS011;18597;48.328;7.932;2024-02-23T01:08:55;0.50;;;0.50;;
32082;SDS011;18597;48.328;7.932;2024-02-23T01:11:21;0.30;;;0.30;;
32082;SDS011;18597;48.328;7.932;2024-02-23T01:13:47;0.80;;;0.80;;
32082;SDS011;18597;48.328;7.932;2024-02-23T01:16:13;1.07;;;0.67;;
32082;SDS011;18597;48.328;7.932;2024-02-23T01:18:38;0.40;;;0.40;;
32082;SDS011;18597;48.328;7.932;2024-02-23T01:21:04;3.07;;;1.47;;
32082;SDS011;18597;48.328;7.932;2024-02-23T01:23:30;2.87;;;2.07;;
32082;SDS011;18597;48.328;7.932;2024-02-23T01:25:56;6.10;;;1.00;;
32082;SDS011;18597;48.328;7.932;2024-02-23T01:28:23;0.50;;;0.50;;
32082;SDS011;18597;48.328;7.932;2024-02-23T01:30:49;4.87;;;0.60;;
32082;SDS011;18597;48.328;7.932;2024-02-23T01:33:15;0.53;;;0.30;;
32082;SDS011;18597;48.328;7.932;2024-02-23T01:35:41;2.20;;;0.77;;
32082;SDS011;18597;48.328;7.932;2024-02-23T01:38:07;0.97;;;0.63;;
32082;SDS011;18597;48.328;7.932;2024-02-23T01:40:33;2.40;;;0.50;;
32082;SDS011;18597;48.328;7.932;2024-02-23T01:43:02;2.17;;;0.50;;
32082;SDS011;18597;48.328;7.932;2024-02-23T01:45:30;0.50;;;0.50;;
32082;SDS011;18597;48.328;7.932;2024-02-23T01:47:56;1.07;;;0.63;;
32082;SDS011;18597;48.328;7.932;2024-02-23T01:50:24;1.00;;;0.60;;
32082;SDS011;18597;48.328;7.932;2024-02-23T01:52:52;0.73;;;0.60;;
32082;SDS011;18597;48.328;7.932;2024-02-23T01:55:20;5.73;;;0.40;;
32082;SDS011;18597;48.328;7.932;2024-02-23T01:57:46;0.37;;;0.30;;
32082;SDS011;18597;48.328;7.932;2024-02-23T02:00:15;1.23;;;0.30;;
32082;SDS011;18597;48.328;7.932;2024-02-23T02:02:43;0.53;;;0.20;;
32082;SDS011;18597;48.328;7.932;2024-02-23T02:05:10;1.37;;;0.40;;
32082;SDS011;18597;48.328;7.932;2024-02-23T02:07:37;2.33;;;0.70;;
32082;SDS011;18597;48.328;7.932;2024-02-23T02:10:05;4.73;;;1.03;;
32082;SDS011;18597;48.328;7.932;2024-02-23T02:12:34;2.17;;;0.40;;
32082;SDS011;18597;48.328;7.932;2024-02-23T02:15:00;0.73;;;0.73;;
32082;SDS011;18597;48.328;7.932;2024-02-23T02:17:28;0.63;;;0.40;;
32082;SDS011;18597;48.328;7.932;2024-02-23T02:19:53;0.60;;;0.60;;
32082;SDS011;18597;48.328;7.932;2024-02-23T02:22:20;0.63;;;0.63;;
32082;SDS011;18597;48.328;7.932;2024-02-23T02:24:45;0.40;;;0.40;;
32082;SDS011;18597;48.328;7.932;2024-02-23T02:27:13;1.70;;;0.50;;
32082;SDS011;18597;48.328;7.932;2024-02-23T02:29:39;0.50;;;0.50;;
32082;SDS011;18597;48.328;7.932;2024-02-23T02:32:05;1.07;;;0.30;;
32082;SDS011;18597;48.328;7.932;2024-02-23T02:34:32;4.20;;;1.03;;
32082;SDS011;18597;48.328;7.932;2024-02-23T02:36:58;0.40;;;0.40;;
32082;SDS011;18597;48.328;7.932;2024-02-23T02:39:25;1.47;;;0.50;;
32082;SDS011;18597;48.328;7.932;2024-02-23T02:41:52;1.90;;;0.60;;
32082;SDS011;18597;48.328;7.932;2024-02-23T02:44:18;1.30;;;0.43;;
32082;SDS011;18597;48.328;7.932;2024-02-23T02:46:43;0.77;;;0.30;;
32082;SDS011;18597;48.328;7.932;2024-02-23T02:49:11;5.43;;;0.77;;
32082;SDS011;18597;48.328;7.932;2024-02-23T02:51:37;0.87;;;0.50;;
32082;SDS011;18597;48.328;7.932;2024-02-23T02:54:03;0.83;;;0.73;;
32082;SDS011;18597;48.328;7.932;2024-02-23T02:56:28;1.23;;;0.43;;
32082;SDS011;18597;48.328;7.932;2024-02-23T02:58:54;5.03;;;0.47;;
32082;SDS011;18597;48.328;7.932;2024-02-23T03:01:20;0.37;;;0.37;;
32082;SDS011;18597;48.328;7.932;2024-02-23T03:03:46;0.70;;;0.70;;
32082;SDS011;18597;48.328;7.932;2024-02-23T03:06:12;2.47;;;0.60;;
32082;SDS011;18597;48.328;7.932;2024-02-23T03:08:38;0.70;;;0.70;;
32082;SDS011;18597;48.328;7.932;2024-02-23T03:11:06;2.43;;;1.13;;
32082;SDS011;18597;48.328;7.932;2024-02-23T03:13:32;2.93;;;1.10;;
32082;SDS011;18597;48.328;7.932;2024-02-23T03:15:57;4.47;;;0.70;;
32082;SDS011;18597;48.328;7.932;2024-02-23T03:18:23;1.90;;;0.60;;
32082;SDS011;18597;48.328;7.932;2024-02-23T03:20:49;0.87;;;0.60;;
32082;SDS011;18597;48.328;7.932;2024-02-23T03:23:15;0.80;;;0.80;;
32082;SDS011;18597;48.328;7.932;2024-02-23T03:25:41;0.87;;;0.87;;
32082;SDS011;18597;48.328;7.932;2024-02-23T03:28:06;2.43;;;0.77;;
32082;SDS011;18597;48.328;7.932;2024-02-23T03:30:32;0.63;;;0.63;;
32082;SDS011;18597;48.328;7.932;2024-02-23T03:32:58;2.30;;;0.90;;
32082;SDS011;18597;48.328;7.932;2024-02-23T03:35:24;0.77;;;0.40;;
32082;SDS011;18597;48.328;7.932;2024-02-23T03:37:50;0.40;;;0.40;;
32082;SDS011;18597;48.328;7.932;2024-02-23T03:40:15;1.70;;;0.47;;
32082;SDS011;18597;48.328;7.932;2024-02-23T03:42:43;0.93;;;0.90;;
32082;SDS011;18597;48.328;7.932;2024-02-23T03:45:09;2.33;;;0.87;;
32082;SDS011;18597;48.328;7.932;2024-02-23T03:47:35;0.80;;;0.80;;
32082;SDS011;18597;48.328;7.932;2024-02-23T03:50:01;1.27;;;1.00;;
32082;SDS011;18597;48.328;7.932;2024-02-23T03:52:26;4.17;;;0.77;;
32082;SDS011;18597;48.328;7.932;2024-02-23T03:54:52;1.90;;;0.90;;
32082;SDS011;18597;48.328;7.932;2024-02-23T03:57:19;1.30;;;0.80;;
32082;SDS011;18597;48.328;7.932;2024-02-23T03:59:52;1.77;;;0.70;;
32082;SDS011;18597;48.328;7.932;2024-02-23T04:02:19;0.67;;;0.57;;
32082;SDS011;18597;48.328;7.932;2024-02-23T04:04:45;1.93;;;0.87;;
32082;SDS011;18597;48.328;7.932;2024-02-23T04:07:13;0.90;;;0.90;;
32082;SDS011;18597;48.328;7.932;2024-02-23T04:09:39;1.57;;;0.63;;
32082;SDS011;18597;48.328;7.932;2024-02-23T04:12:05;9.30;;;1.30;;
32082;SDS011;18597;48.328;7.932;2024-02-23T04:14:32;3.43;;;0.90;;
32082;SDS011;18597;48.328;7.932;2024-02-23T04:17:02;4.10;;;1.00;;
32082;SDS011;18597;48.328;7.932;2024-02-23T04:19:28;0.90;;;0.90;;
32082;SDS011;18597;48.328;7.932;2024-02-23T04:21:54;1.17;;;0.67;;
32082;SDS011;18597;48.328;7.932;2024-02-23T04:24:20;1.40;;;1.17;;
32082;SDS011;18597;48.328;7.932;2024-02-23T04:26:46;1.03;;;0.93;;
32082;SDS011;18597;48.328;7.932;2024-02-23T04:29:12;6.70;;;1.20;;
32082;SDS011;18597;48.328;7.932;2024-02-23T04:31:38;5.13;;;0.73;;
32082;SDS011;18597;48.328;7.932;2024-02-23T04:34:04;2.20;;;1.20;;
32082;SDS011;18597;48.328;7.932;2024-02-23T04:36:29;0.93;;;0.93;;
32082;SDS011;18597;48.328;7.932;2024-02-23T04:38:55;4.50;;;1.40;;
32082;SDS011;18597;48.328;7.932;2024-02-23T04:41:21;2.40;;;1.13;;
32082;SDS011;18597;48.328;7.932;2024-02-23T04:43:47;0.83;;;0.67;;
32082;SDS011;18597;48.328;7.932;2024-02-23T04:46:13;0.97;;;0.73;;
32082;SDS011;18597;48.328;7.932;2024-02-23T04:48:39;0.90;;;0.60;;
32082;SDS011;18597;48.328;7.932;2024-02-23T04:51:04;2.37;;;1.00;;
32082;SDS011;18597;48.328;7.932;2024-02-23T04:53:35;7.13;;;1.73;;
32082;SDS011;18597;48.328;7.932;2024-02-23T04:56:02;2.63;;;2.30;;
32082;SDS011;18597;48.328;7.932;2024-02-23T04:58:29;3.57;;;1.20;;
32082;SDS011;18597;48.328;7.932;2024-02-23T05:00:54;3.47;;;1.15;;
32082;SDS011;18597;48.328;7.932;2024-02-23T05:03:20;13.60;;;1.70;;
32082;SDS011;18597;48.328;7.932;2024-02-23T05:05:46;2.37;;;1.30;;
32082;SDS011;18597;48.328;7.932;2024-02-23T05:08:13;6.40;;;4.67;;
32082;SDS011;18597;48.328;7.932;2024-02-23T05:10:39;11.40;;;5.20;;
32082;SDS011;18597;48.328;7.932;2024-02-23T05:13:04;23.83;;;12.87;;
32082;SDS011;18597;48.328;7.932;2024-02-23T05:15:30;29.70;;;15.30;;
32082;SDS011;18597;48.328;7.932;2024-02-23T05:17:56;45.30;;;20.30;;
32082;SDS011;18597;48.328;7.932;2024-02-23T05:20:22;22.27;;;9.30;;
32082;SDS011;18597;48.328;7.932;2024-02-23T05:22:47;5.10;;;3.90;;
32082;SDS011;18597;48.328;7.932;2024-02-23T05:25:13;3.83;;;1.60;;
32082;SDS011;18597;48.328;7.932;2024-02-23T05:27:39;2.97;;;1.60;;
32082;SDS011;18597;48.328;7.932;2024-02-23T05:30:05;11.77;;;1.70;;
32082;SDS011;18597;48.328;7.932;2024-02-23T05:32:31;1.77;;;1.67;;
32082;SDS011;18597;48.328;7.932;2024-02-23T05:34:57;6.53;;;1.63;;
32082;SDS011;18597;48.328;7.932;2024-02-23T05:37:23;4.47;;;1.97;;
32082;SDS011;18597;48.328;7.932;2024-02-23T05:39:49;5.37;;;1.37;;
32082;SDS011;18597;48.328;7.932;2024-02-23T05:42:15;8.20;;;1.47;;
32082;SDS011;18597;48.328;7.932;2024-02-23T05:44:43;5.70;;;1.40;;
32082;SDS011;18597;48.328;7.932;2024-02-23T05:47:10;5.80;;;2.37;;
32082;SDS011;18597;48.328;7.932;2024-02-23T05:49:36;6.53;;;2.77;;
32082;SDS011;18597;48.328;7.932;2024-02-23T05:52:01;5.70;;;3.13;;
32082;SDS011;18597;48.328;7.932;2024-02-23T05:54:28;7.53;;;5.13;;
32082;SDS011;18597;48.328;7.932;2024-02-23T05:56:53;12.47;;;4.40;;
32082;SDS011;18597;48.328;7.932;2024-02-23T05:59:19;2.20;;;1.37;;
32082;SDS011;18597;48.328;7.932;2024-02-23T06:01:45;7.30;;;2.50;;
32082;SDS011;18597;48.328;7.932;2024-02-23T06:04:11;2.50;;;1.30;;
32082;SDS011;18597;48.328;7.932;2024-02-23T06:06:37;2.30;;;2.10;;
32082;SDS011;18597;48.328;7.932;2024-02-23T06:09:05;3.37;;;1.67;;
32082;SDS011;18597;48.328;7.932;2024-02-23T06:11:31;4.50;;;1.80;;
32082;SDS011;18597;48.328;7.932;2024-02-23T06:13:57;3.73;;;2.73;;
32082;SDS011;18597;48.328;7.932;2024-02-23T06:16:23;3.03;;;2.73;;
32082;SDS011;18597;48.328;7.932;2024-02-23T06:18:48;11.83;;;5.10;;
32082;SDS011;18597;48.328;7.932;2024-02-23T06:21:16;10.30;;;4.50;;
32082;SDS011;18597;48.328;7.932;2024-02-23T06:23:43;9.43;;;2.80;;
32082;SDS011;18597;48.328;7.932;2024-02-23T06:26:10;10.33;;;6.20;;
32082;SDS011;18597;48.328;7.932;2024-02-23T06:28:36;7.43;;;2.70;;
32082;SDS011;18597;48.328;7.932;2024-02-23T06:31:04;5.83;;;4.37;;
32082;SDS011;18597;48.328;7.932;2024-02-23T06:33:31;8.70;;;2.87;;
32082;SDS011;18597;48.328;7.932;2024-02-23T06:35:57;5.30;;;4.80;;
32082;SDS011;18597;48.328;7.932;2024-02-23T06:38:23;10.27;;;4.10;;
32082;SDS011;18597;48.328;7.932;2024-02-23T06:40:48;11.93;;;5.30;;
32082;SDS011;18597;48.328;7.932;2024-02-23T06:43:14;2.60;;;2.40;;
32082;SDS011;18597;48.328;7.932;2024-02-23T06:45:40;3.60;;;1.37;;
32082;SDS011;18597;48.328;7.932;2024-02-23T06:48:06;12.40;;;2.40;;
32082;SDS011;18597;48.328;7.932;2024-02-23T06:50:32;8.43;;;3.00;;
32082;SDS011;18597;48.328;7.932;2024-02-23T06:52:58;7.57;;;1.90;;
32082;SDS011;18597;48.328;7.932;2024-02-23T06:55:24;4.40;;;2.50;;
32082;SDS011;18597;48.328;7.932;2024-02-23T06:57:50;3.80;;;2.40;;
32082;SDS011;18597;48.328;7.932;2024-02-23T07:00:16;4.50;;;1.60;;
32082;SDS011;18597;48.328;7.932;2024-02-23T07:02:42;2.37;;;1.00;;
32082;SDS011;18597;48.328;7.932;2024-02-23T07:05:08;2.53;;;1.40;;
32082;SDS011;18597;48.328;7.932;2024-02-23T07:07:34;6.57;;;1.20;;
32082;SDS011;18597;48.328;7.932;2024-02-23T07:10:00;3.70;;;0.90;;
32082;SDS011;18597;48.328;7.932;2024-02-23T07:12:26;6.17;;;1.20;;
32082;SDS011;18597;48.328;7.932;2024-02-23T07:14:54;8.20;;;1.40;;
32082;SDS011;18597;48.328;7.932;2024-02-23T07:17:21;3.93;;;1.10;;
32082;SDS011;18597;48.328;7.932;2024-02-23T07:19:47;3.27;;;1.20;;
32082;SDS011;18597;48.328;7.932;2024-02-23T07:22:12;9.73;;;1.00;;
32082;SDS011;18597;48.328;7.932;2024-02-23T07:24:41;1.03;;;0.93;;
32082;SDS011;18597;48.328;7.932;2024-02-23T07:27:07;3.43;;;0.90;;
32082;SDS011;18597;48.328;7.932;2024-02-23T07:29:33;3.30;;;1.00;;
32082;SDS011;18597;48.328;7.932;2024-02-23T07:31:59;4.20;;;1.23;;
32082;SDS011;18597;48.328;7.932;2024-02-23T07:34:25;0.87;;;0.87;;
32082;SDS011;18597;48.328;7.932;2024-02-23T07:36:52;12.13;;;1.30;;
32082;SDS011;18597;48.328;7.932;2024-02-23T07:39:19;1.30;;;0.87;;
32082;SDS011;18597;48.328;7.932;2024-02-23T07:41:45;2.80;;;1.20;;
32082;SDS011;18597;48.328;7.932;2024-02-23T07:44:11;1.77;;;1.00;;
32082;SDS011;18597;48.328;7.932;2024-02-23T07:46:37;1.50;;;1.10;;
32082;SDS011;18597;48.328;7.932;2024-02-23T07:49:04;7.30;;;1.73;;
32082;SDS011;18597;48.328;7.932;2024-02-23T07:51:31;4.40;;;1.30;;
32082;SDS011;18597;48.328;7.932;2024-02-23T07:53:57;2.50;;;1.43;;
32082;SDS011;18597;48.328;7.932;2024-02-23T07:56:23;4.00;;;1.67;;
32082;SDS011;18597;48.328;7.932;2024-02-23T07:58:49;7.33;;;1.70;;
32082;SDS011;18597;48.328;7.932;2024-02-23T08:01:14;6.07;;;1.90;;
32082;SDS011;18597;48.328;7.932;2024-02-23T08:03:40;3.07;;;2.67;;
32082;SDS011;18597;48.328;7.932;2024-02-23T08:06:06;6.83;;;2.03;;
32082;SDS011;18597;48.328;7.932;2024-02-23T08:08:32;8.00;;;2.27;;
32082;SDS011;18597;48.328;7.932;2024-02-23T08:11:01;10.53;;;1.83;;
32082;SDS011;18597;48.328;7.932;2024-02-23T08:13:27;1.50;;;1.00;;
32082;SDS011;18597;48.328;7.932;2024-02-23T08:15:53;3.70;;;1.13;;
32082;SDS011;18597;48.328;7.932;2024-02-23T08:18:19;2.70;;;1.10;;
32082;SDS011;18597;48.328;7.932;2024-02-23T08:20:47;6.73;;;1.37;;
32082;SDS011;18597;48.328;7.932;2024-02-23T08:23:13;4.33;;;1.50;;
32082;SDS011;18597;48.328;7.932;2024-02-23T08:25:39;4.53;;;2.50;;
32082;SDS011;18597;48.328;7.932;2024-02-23T08:28:05;1.20;;;1.10;;
32082;SDS011;18597;48.328;7.932;2024-02-23T08:30:33;1.43;;;0.90;;
32082;SDS011;18597;48.328;7.932;2024-02-23T08:32:58;9.57;;;1.77;;
32082;SDS011;18597;48.328;7.932;2024-02-23T08:35:25;4.10;;;1.40;;
32082;SDS011;18597;48.328;7.932;2024-02-23T08:37:51;9.33;;;1.60;;
32082;SDS011;18597;48.328;7.932;2024-02-23T08:40:17;2.00;;;0.90;;
32082;SDS011;18597;48.328;7.932;2024-02-23T08:42:43;13.13;;;2.07;;
32082;SDS011;18597;48.328;7.932;2024-02-23T08:45:09;4.20;;;1.30;;
32082;SDS011;18597;48.328;7.932;2024-02-23T08:47:37;4.60;;;1.40;;
32082;SDS011;18597;48.328;7.932;2024-02-23T08:50:03;6.83;;;1.80;;
32082;SDS011;18597;48.328;7.932;2024-02-23T08:52:30;7.50;;;1.30;;
32082;SDS011;18597;48.328;7.932;2024-02-23T08:54:56;11.90;;;1.73;;
32082;SDS011;18597;48.328;7.932;2024-02-23T08:57:22;4.53;;;1.80;;
32082;SDS011;18597;48.328;7.932;2024-02-23T08:59:48;9.97;;;1.30;;
32082;SDS011;18597;48.328;7.932;2024-02-23T09:02:15;11.53;;;1.77;;
32082;SDS011;18597;48.328;7.932;2024-02-23T09:04:40;6.70;;;1.80;;
32082;SDS011;18597;48.328;7.932;2024-02-23T09:07:06;8.60;;;2.00;;
32082;SDS011;18597;48.328;7.932;2024-02-23T09:09:32;6.93;;;1.60;;
32082;SDS011;18597;48.328;7.932;2024-02-23T09:11:58;4.00;;;1.40;;
32082;SDS011;18597;48.328;7.932;2024-02-23T09:14:24;12.33;;;2.20;;
32082;SDS011;18597;48.328;7.932;2024-02-23T09:16:50;10.73;;;1.93;;
32082;SDS011;18597;48.328;7.932;2024-02-23T09:19:18;8.47;;;1.70;;
32082;SDS011;18597;48.328;7.932;2024-02-23T09:21:44;11.07;;;3.90;;
32082;SDS011;18597;48.328;7.932;2024-02-23T09:24:10;3.83;;;1.70;;
32082;SDS011;18597;48.328;7.932;2024-02-23T09:26:36;6.20;;;2.20;;
32082;SDS011;18597;48.328;7.932;2024-02-23T09:29:02;11.40;;;2.93;;
32082;SDS011;18597;48.328;7.932;2024-02-23T09:31:28;7.53;;;2.30;;
32082;SDS011;18597;48.328;7.932;2024-02-23T09:33:55;11.87;;;3.27;;
32082;SDS011;18597;48.328;7.932;2024-02-23T09:36:21;11.00;;;2.07;;
32082;SDS011;18597;48.328;7.932;2024-02-23T09:38:47;9.43;;;2.30;;
32082;SDS011;18597;48.328;7.932;2024-02-23T09:41:21;7.13;;;3.70;;
32082;SDS011;18597;48.328;7.932;2024-02-23T09:43:49;10.83;;;6.20;;
32082;SDS011;18597;48.328;7.932;2024-02-23T09:46:16;11.07;;;3.30;;
32082;SDS011;18597;48.328;7.932;2024-02-23T09:48:44;24.77;;;5.87;;
32082;SDS011;18597;48.328;7.932;2024-02-23T09:51:11;9.07;;;3.10;;
32082;SDS011;18597;48.328;7.932;2024-02-23T09:53:40;7.00;;;1.70;;
32082;SDS011;18597;48.328;7.932;2024-02-23T09:56:08;3.70;;;1.30;;
32082;SDS011;18597;48.328;7.932;2024-02-23T09:58:36;8.07;;;1.80;;
32082;SDS011;18597;48.328;7.932;2024-02-23T10:01:03;11.67;;;2.40;;
32082;SDS011;18597;48.328;7.932;2024-02-23T10:03:29;5.37;;;1.70;;
32082;SDS011;18597;48.328;7.932;2024-02-23T10:05:56;2.20;;;1.63;;
32082;SDS011;18597;48.328;7.932;2024-02-23T10:08:22;5.50;;;1.40;;
32082;SDS011;18597;48.328;7.932;2024-02-23T10:10:48;3.20;;;1.57;;
32082;SDS011;18597;48.328;7.932;2024-02-23T10:13:18;6.40;;;1.93;;
32082;SDS011;18597;48.328;7.932;2024-02-23T10:15:47;14.20;;;1.70;;
32082;SDS011;18597;48.328;7.932;2024-02-23T10:18:13;10.00;;;2.23;;
32082;SDS011;18597;48.328;7.932;2024-02-23T10:20:40;7.50;;;1.93;;
32082;SDS011;18597;48.328;7.932;2024-02-23T10:23:07;6.13;;;2.10;;
32082;SDS011;18597;48.328;7.932;2024-02-23T10:25:34;4.10;;;1.53;;
32082;SDS011;18597;48.328;7.932;2024-02-23T10:28:01;4.60;;;1.60;;
32082;SDS011;18597;48.328;7.932;2024-02-23T10:30:28;7.37;;;1.60;;
32082;SDS011;18597;48.328;7.932;2024-02-23T10:32:55;5.93;;;2.60;;
32082;SDS011;18597;48.328;7.932;2024-02-23T10:35:24;9.70;;;1.30;;
32082;SDS011;18597;48.328;7.932;2024-02-23T10:37:51;4.70;;;1.70;;
32082;SDS011;18597;48.328;7.932;2024-02-23T10:40:18;6.83;;;1.43;;
32082;SDS011;18597;48.328;7.932;2024-02-23T10:42:46;6.10;;;1.80;;
32082;SDS011;18597;48.328;7.932;2024-02-23T10:45:16;7.23;;;2.37;;
32082;SDS011;18597;48.328;7.932;2024-02-23T10:47:44;5.60;;;1.10;;
32082;SDS011;18597;48.328;7.932;2024-02-23T10:50:11;4.00;;;1.37;;
32082;SDS011;18597;48.328;7.932;2024-02-23T10:52:40;6.93;;;1.70;;
32082;SDS011;18597;48.328;7.932;2024-02-23T10:55:08;3.67;;;1.33;;
32082;SDS011;18597;48.328;7.932;2024-02-23T10:57:35;3.03;;;1.07;;
32082;SDS011;18597;48.328;7.932;2024-02-23T11:00:02;6.33;;;1.27;;
32082;SDS011;18597;48.328;7.932;2024-02-23T11:02:34;3.93;;;1.03;;
32082;SDS011;18597;48.328;7.932;2024-02-23T11:05:06;8.33;;;1.40;;
32082;SDS011;18597;48.328;7.932;2024-02-23T11:07:37;4.70;;;1.00;;
32082;SDS011;18597;48.328;7.932;2024-02-23T11:10:05;3.13;;;1.50;;
32082;SDS011;18597;48.328;7.932;2024-02-23T11:12:31;6.67;;;1.00;;
32082;SDS011;18597;48.328;7.932;2024-02-23T11:14:59;2.77;;;0.87;;
32082;SDS011;18597;48.328;7.932;2024-02-23T11:17:26;7.50;;;1.10;;
32082;SDS011;18597;48.328;7.932;2024-02-23T11:19:55;5.27;;;1.40;;
32082;SDS011;18597;48.328;7.932;2024-02-23T11:22:25;12.80;;;3.23;;
32082;SDS011;18597;48.328;7.932;2024-02-23T11:24:59;2.93;;;1.27;;
32082;SDS011;18597;48.328;7.932;2024-02-23T11:27:31;4.43;;;1.03;;
32082;SDS011;18597;48.328;7.932;2024-02-23T11:29:59;3.83;;;1.57;;
32082;SDS011;18597;48.328;7.932;2024-02-23T11:32:47;2.20;;;0.93;;
32082;SDS011;18597;48.328;7.932;2024-02-23T11:35:14;2.53;;;1.10;;
32082;SDS011;18597;48.328;7.932;2024-02-23T11:37:47;7.10;;;1.20;;
32082;SDS011;18597;48.328;7.932;2024-02-23T11:40:26;4.77;;;1.87;;
32082;SDS011;18597;48.328;7.932;2024-02-23T11:42:54;3.87;;;1.67;;
32082;SDS011;18597;48.328;7.932;2024-02-23T11:45:21;4.37;;;1.40;;
32082;SDS011;18597;48.328;7.932;2024-02-23T11:47:47;3.23;;;1.90;;
32082;SDS011;18597;48.328;7.932;2024-02-23T11:50:13;1.50;;;1.23;;
32082;SDS011;18597;48.328;7.932;2024-02-23T11:52:44;4.70;;;1.20;;
32082;SDS011;18597;48.328;7.932;2024-02-23T11:55:10;6.30;;;1.30;;
32082;SDS011;18597;48.328;7.932;2024-02-23T11:57:36;9.20;;;1.87;;
32082;SDS011;18597;48.328;7.932;2024-02-23T12:00:04;3.10;;;1.30;;
32082;SDS011;18597;48.328;7.932;2024-02-23T12:02:32;3.53;;;1.17;;
32082;SDS011;18597;48.328;7.932;2024-02-23T12:05:00;7.83;;;1.30;;
32082;SDS011;18597;48.328;7.932;2024-02-23T12:07:28;2.30;;;1.13;;
32082;SDS011;18597;48.328;7.932;2024-02-23T12:09:55;5.70;;;2.10;;
32082;SDS011;18597;48.328;7.932;2024-02-23T12:12:22;6.10;;;2.10;;
32082;SDS011;18597;48.328;7.932;2024-02-23T12:14:50;4.70;;;1.00;;
32082;SDS011;18597;48.328;7.932;2024-02-23T12:17:16;4.77;;;1.50;;
32082;SDS011;18597;48.328;7.932;2024-02-23T12:19:42;3.73;;;1.40;;
32082;SDS011;18597;48.328;7.932;2024-02-23T12:22:08;7.43;;;1.73;;
32082;SDS011;18597;48.328;7.932;2024-02-23T12:24:36;1.90;;;1.23;;
32082;SDS011;18597;48.328;7.932;2024-02-23T12:27:02;3.93;;;1.33;;
32082;SDS011;18597;48.328;7.932;2024-02-23T12:29:30;3.43;;;1.47;;
32082;SDS011;18597;48.328;7.932;2024-02-23T12:32:03;14.43;;;1.77;;
32082;SDS011;18597;48.328;7.932;2024-02-23T12:34:31;3.33;;;1.67;;
32082;SDS011;18597;48.328;7.932;2024-02-23T12:36:57;4.43;;;1.30;;
32082;SDS011;18597;48.328;7.932;2024-02-23T12:39:23;6.33;;;1.00;;
32082;SDS011;18597;48.328;7.932;2024-02-23T12:41:49;2.77;;;1.57;;
32082;SDS011;18597;48.328;7.932;2024-02-23T12:44:15;2.23;;;1.27;;
32082;SDS011;18597;48.328;7.932;2024-02-23T12:46:41;7.00;;;1.63;;
32082;SDS011;18597;48.328;7.932;2024-02-23T12:49:07;1.63;;;1.27;;
32082;SDS011;18597;48.328;7.932;2024-02-23T12:51:34;2.57;;;1.07;;
32082;SDS011;18597;48.328;7.932;2024-02-23T12:54:00;2.83;;;1.60;;
32082;SDS011;18597;48.328;7.932;2024-02-23T12:56:26;4.53;;;1.63;;
32082;SDS011;18597;48.328;7.932;2024-02-23T12:58:52;4.10;;;1.10;;
32082;SDS011;18597;48.328;7.932;2024-02-23T13:01:19;1.50;;;0.87;;
32082;SDS011;18597;48.328;7.932;2024-02-23T13:03:45;6.23;;;1.83;;
32082;SDS011;18597;48.328;7.932;2024-02-23T13:06:10;0.90;;;0.90;;
32082;SDS011;18597;48.328;7.932;2024-02-23T13:08:38;2.30;;;1.30;;
32082;SDS011;18597;48.328;7.932;2024-02-23T13:11:05;3.27;;;0.90;;
32082;SDS011;18597;48.328;7.932;2024-02-23T13:13:31;1.20;;;0.73;;
32082;SDS011;18597;48.328;7.932;2024-02-23T13:15:58;5.40;;;1.10;;
32082;SDS011;18597;48.328;7.932;2024-02-23T13:18:23;2.37;;;1.30;;
32082;SDS011;18597;48.328;7.932;2024-02-23T13:20:50;1.97;;;0.73;;
32082;SDS011;18597;48.328;7.932;2024-02-23T13:23:15;0.67;;;0.67;;
32082;SDS011;18597;48.328;7.932;2024-02-23T13:25:42;1.30;;;1.20;;
32082;SDS011;18597;48.328;7.932;2024-02-23T13:28:09;4.53;;;0.93;;
32082;SDS011;18597;48.328;7.932;2024-02-23T13:30:35;6.23;;;1.27;;
32082;SDS011;18597;48.328;7.932;2024-02-23T13:33:02;2.87;;;0.87;;
32082;SDS011;18597;48.328;7.932;2024-02-23T13:35:28;2.00;;;1.70;;
32082;SDS011;18597;48.328;7.932;2024-02-23T13:37:54;0.40;;;0.40;;
32082;SDS011;18597;48.328;7.932;2024-02-23T13:40:22;7.57;;;0.97;;
32082;SDS011;18597;48.328;7.932;2024-02-23T13:42:48;0.80;;;0.80;;
32082;SDS011;18597;48.328;7.932;2024-02-23T13:45:15;1.10;;;1.10;;
32082;SDS011;18597;48.328;7.932;2024-02-23T13:47:42;1.37;;;1.27;;
32082;SDS011;18597;48.328;7.932;2024-02-23T13:50:09;4.87;;;1.30;;
32082;SDS011;18597;48.328;7.932;2024-02-23T13:52:35;1.03;;;0.87;;
32082;SDS011;18597;48.328;7.932;2024-02-23T13:55:02;1.47;;;0.70;;
32082;SDS011;18597;48.328;7.932;2024-02-23T13:57:28;0.83;;;0.80;;
32082;SDS011;18597;48.328;7.932;2024-02-23T13:59:54;0.60;;;0.60;;
32082;SDS011;18597;48.328;7.932;2024-02-23T14:02:24;1.80;;;0.73;;
32082;SDS011;18597;48.328;7.932;2024-02-23T14:04:52;2.43;;;0.73;;
32082;SDS011;18597;48.328;7.932;2024-02-23T14:07:18;1.20;;;0.93;;
32082;SDS011;18597;48.328;7.932;2024-02-23T14:09:45;1.13;;;0.93;;
32082;SDS011;18597;48.328;7.932;2024-02-23T14:12:11;3.70;;;1.20;;
32082;SDS011;18597;48.328;7.932;2024-02-23T14:14:37;2.80;;;0.50;;
32082;SDS011;18597;48.328;7.932;2024-02-23T14:17:03;1.57;;;0.50;;
32082;SDS011;18597;48.328;7.932;2024-02-23T14:19:29;3.43;;;0.73;;
32082;SDS011;18597;48.328;7.932;2024-02-23T14:21:54;2.67;;;0.87;;
32082;SDS011;18597;48.328;7.932;2024-02-23T14:24:20;1.47;;;1.37;;
32082;SDS011;18597;48.328;7.932;2024-02-23T14:26:46;4.00;;;0.53;;
32082;SDS011;18597;48.328;7.932;2024-02-23T14:29:12;1.63;;;0.80;;
32082;SDS011;18597;48.328;7.932;2024-02-23T14:31:38;3.03;;;0.80;;
32082;SDS011;18597;48.328;7.932;2024-02-23T14:34:04;2.70;;;0.60;;
32082;SDS011;18597;48.328;7.932;2024-02-23T14:36:30;1.13;;;0.70;;
32082;SDS011;18597;48.328;7.932;2024-02-23T14:38:59;4.13;;;0.80;;
32082;SDS011;18597;48.328;7.932;2024-02-23T14:41:25;4.10;;;1.40;;